Time;durP1;ratioP1;P1;durP2;ratioP2;P2;SDS_P1;SDS_P2;PMS_P1;PMS_P2;Temp;Humidity;BMP_temperature;BMP_pressure;BME280_temperature;BME280_humidity;BME280_pressure;Samples;Min_cycle;Max_cycle;Signal;HPM_P1;HPM_P2
2022/06/21 00:00:37;;;;;;;6.97;4.57;;;;;;;;;;5015330;28;20038;-77
2022/06/21 00:03:25;;;;;;;6.13;4.97;;;;;;;;;;5021833;28;20050;-77
2022/06/21 00:06:17;;;;;;;5.13;4.43;;;;;;;;;;5014918;28;20387;-77
2022/06/21 00:09:03;;;;;;;6.95;4.45;;;;;;;;;;5014838;28;20041;-78
2022/06/21 00:11:48;;;;;;;5.20;4.70;;;;;;;;;;5014528;28;20046;-76
2022/06/21 00:14:34;;;;;;;4.80;4.32;;;;;;;;;;5014983;28;20046;-76
2022/06/21 00:17:21;;;;;;;5.63;4.95;;;;;;;;;;5014966;28;20046;-75
2022/06/21 00:20:10;;;;;;;9.30;4.88;;;;;;;;;;5014566;28;20058;-75
2022/06/21 00:22:56;;;;;;;5.63;4.80;;;;;;;;;;5014693;28;20046;-75
2022/06/21 00:25:42;;;;;;;5.18;4.68;;;;;;;;;;5013723;28;20049;-77
2022/06/21 00:28:27;;;;;;;6.55;5.03;;;;;;;;;;5014555;28;20042;-75
2022/06/21 00:31:32;;;;;;;7.97;5.00;;;;;;;;;;5021292;28;20045;-75
2022/06/21 00:34:20;;;;;;;7.57;4.83;;;;;;;;;;5014345;28;20054;-75
2022/06/21 00:37:04;;;;;;;7.78;5.65;;;;;;;;;;5014523;28;20479;-75
2022/06/21 00:39:51;;;;;;;8.65;5.13;;;;;;;;;;5014263;28;20049;-77
2022/06/21 00:42:38;;;;;;;6.30;4.80;;;;;;;;;;5021224;28;20053;-75
2022/06/21 00:45:37;;;;;;;10.38;5.78;;;;;;;;;;5020995;28;20395;-78
2022/06/21 00:48:39;;;;;;;7.32;5.13;;;;;;;;;;5015161;28;20487;-75
2022/06/21 00:51:38;;;;;;;6.28;4.93;;;;;;;;;;5014384;28;20037;-75
2022/06/21 00:54:33;;;;;;;5.40;4.68;;;;;;;;;;5020306;28;20058;-76
2022/06/21 00:57:23;;;;;;;8.05;4.93;;;;;;;;;;5014383;28;20038;-78
2022/06/21 01:00:27;;;;;;;5.70;4.90;;;;;;;;;;5014633;28;20037;-77
2022/06/21 01:03:17;;;;;;;8.35;5.15;;;;;;;;;;5013824;28;20038;-75
2022/06/21 01:06:09;;;;;;;6.35;5.03;;;;;;;;;;5014068;28;20054;-75
2022/06/21 01:09:07;;;;;;;8.68;5.35;;;;;;;;;;5019905;28;20037;-75
2022/06/21 01:12:01;;;;;;;8.32;5.00;;;;;;;;;;5013984;28;20042;-77
2022/06/21 01:14:50;;;;;;;6.82;4.97;;;;;;;;;;5020334;28;20046;-75
2022/06/21 01:17:37;;;;;;;5.55;4.70;;;;;;;;;;5013895;28;20038;-78
2022/06/21 01:20:25;;;;;;;5.15;4.65;;;;;;;;;;5014255;28;20038;-78
2022/06/21 01:23:14;;;;;;;9.82;5.20;;;;;;;;;;5019841;28;20046;-78
2022/06/21 01:26:35;;;;;;;10.18;5.18;;;;;;;;;;5013838;28;20034;-75
2022/06/21 01:29:28;;;;;;;7.10;5.53;;;;;;;;;;5013099;28;20436;-76
2022/06/21 01:32:14;;;;;;;6.00;4.95;;;;;;;;;;5013641;28;20387;-74
2022/06/21 01:35:01;;;;;;;9.85;4.85;;;;;;;;;;5013513;28;20050;-78
2022/06/21 01:37:46;;;;;;;7.50;5.45;;;;;;;;;;5019806;28;20042;-78
2022/06/21 01:40:38;;;;;;;6.05;4.72;;;;;;;;;;5013807;28;20041;-77
2022/06/21 01:43:26;;;;;;;6.80;5.10;;;;;;;;;;5013334;28;20038;-78
2022/06/21 01:46:17;;;;;;;10.85;5.03;;;;;;;;;;5013837;28;20054;-77
2022/06/21 01:49:14;;;;;;;6.18;5.55;;;;;;;;;;5020046;28;20038;-75
2022/06/21 01:52:10;;;;;;;9.95;6.55;;;;;;;;;;5004904;28;20046;-77
2022/06/21 01:55:02;;;;;;;8.63;7.03;;;;;;;;;;5013575;28;20042;-78
2022/06/21 01:57:48;;;;;;;7.72;5.93;;;;;;;;;;5013240;28;20391;-78
2022/06/21 02:00:36;;;;;;;8.63;5.72;;;;;;;;;;5013362;28;20050;-74
2022/06/21 02:03:29;;;;;;;9.00;5.68;;;;;;;;;;5005524;28;20046;-78
2022/06/21 02:06:16;;;;;;;8.27;5.68;;;;;;;;;;5012909;28;20042;-74
2022/06/21 02:09:05;;;;;;;7.45;5.93;;;;;;;;;;5013336;28;20046;-74
2022/06/21 02:12:00;;;;;;;6.00;5.35;;;;;;;;;;5013282;28;20053;-74
2022/06/21 02:14:51;;;;;;;9.35;6.05;;;;;;;;;;5013140;28;20050;-78
2022/06/21 02:17:41;;;;;;;8.68;5.97;;;;;;;;;;5013454;28;20050;-74
2022/06/21 02:20:37;;;;;;;5.93;5.30;;;;;;;;;;5012896;28;20479;-78
2022/06/21 02:23:23;;;;;;;8.10;5.70;;;;;;;;;;5013413;28;20046;-78
2022/06/21 02:26:11;;;;;;;10.15;5.90;;;;;;;;;;5012977;28;20046;-76
2022/06/21 02:28:57;;;;;;;8.55;5.50;;;;;;;;;;5012990;28;20041;-77
2022/06/21 02:31:44;;;;;;;7.13;6.05;;;;;;;;;;5013107;28;20483;-75
2022/06/21 02:34:39;;;;;;;6.43;5.80;;;;;;;;;;5012527;28;20046;-75
2022/06/21 02:37:26;;;;;;;10.82;7.53;;;;;;;;;;5013223;28;20037;-74
2022/06/21 02:40:20;;;;;;;9.20;6.85;;;;;;;;;;5013280;28;20046;-78
2022/06/21 02:43:11;;;;;;;9.63;7.00;;;;;;;;;;5019703;28;20054;-78
2022/06/21 02:46:01;;;;;;;12.07;8.85;;;;;;;;;;5020092;28;20046;-78
2022/06/21 02:49:11;;;;;;;11.30;8.68;;;;;;;;;;5015869;28;20046;-78
2022/06/21 02:52:01;;;;;;;10.80;8.65;;;;;;;;;;5018066;28;20050;-78
2022/06/21 02:55:16;;;;;;;13.80;9.80;;;;;;;;;;5016623;28;20050;-75
2022/06/21 02:58:24;;;;;;;16.23;11.13;;;;;;;;;;5017052;28;20050;-75
2022/06/21 03:01:23;;;;;;;14.65;10.32;;;;;;;;;;5017242;28;20046;-75
2022/06/21 03:04:18;;;;;;;16.10;9.18;;;;;;;;;;5018473;28;20045;-78
2022/06/21 03:07:05;;;;;;;17.63;8.38;;;;;;;;;;5018000;28;20050;-78
2022/06/21 03:09:54;;;;;;;7.93;6.78;;;;;;;;;;5022110;28;20045;-75
2022/06/21 03:12:39;;;;;;;11.25;6.22;;;;;;;;;;5022969;28;20050;-76
2022/06/21 03:15:25;;;;;;;10.55;6.18;;;;;;;;;;5016090;28;20050;-75
2022/06/21 03:18:16;;;;;;;11.55;6.10;;;;;;;;;;5015759;28;20495;-75
2022/06/21 03:21:04;;;;;;;11.57;6.10;;;;;;;;;;5016039;28;20046;-75
2022/06/21 03:23:50;;;;;;;11.02;6.43;;;;;;;;;;5015403;28;20038;-75
2022/06/21 03:26:38;;;;;;;11.23;6.85;;;;;;;;;;5022573;28;20488;-75
2022/06/21 03:29:23;;;;;;;10.45;7.00;;;;;;;;;;5015701;28;20046;-78
2022/06/21 03:32:10;;;;;;;12.60;6.97;;;;;;;;;;5015178;28;20046;-75
2022/06/21 03:34:56;;;;;;;10.05;6.40;;;;;;;;;;5015739;28;20483;-75
2022/06/21 03:37:43;;;;;;;9.05;6.50;;;;;;;;;;5015076;28;20065;-75
2022/06/21 03:43:48;;;;;;;9.57;5.95;;;;;;;;;;5015732;28;20042;-75
2022/06/21 03:46:43;;;;;;;12.27;6.50;;;;;;;;;;5015030;28;20054;-75
2022/06/21 03:49:31;;;;;;;12.43;6.60;;;;;;;;;;5021824;28;20367;-75
2022/06/21 03:52:45;;;;;;;14.32;6.72;;;;;;;;;;5015151;28;20049;-77
2022/06/21 03:55:40;;;;;;;10.97;7.27;;;;;;;;;;5015349;28;20045;-78
2022/06/21 03:59:04;;;;;;;;;;;;;;;;;;5015205;28;20042;-76
2022/06/21 04:02:00;;;;;;;15.82;6.70;;;;;;;;;;4935875;29;19919;-77
2022/06/21 04:05:07;;;;;;;9.65;6.43;;;;;;;;;;4935724;29;20047;-75
2022/06/21 04:07:54;;;;;;;11.23;6.72;;;;;;;;;;5014767;28;20452;-78
2022/06/21 04:11:06;;;;;;;12.25;6.53;;;;;;;;;;5015364;28;20042;-78
2022/06/21 04:14:11;;;;;;;17.20;6.90;;;;;;;;;;5014426;28;20050;-75
2022/06/21 04:17:05;;;;;;;12.93;6.97;;;;;;;;;;5015238;28;20083;-78
2022/06/21 04:19:52;;;;;;;12.05;6.40;;;;;;;;;;5014730;28;20046;-77
2022/06/21 04:22:57;;;;;;;13.13;6.88;;;;;;;;;;5014818;28;20050;-75
2022/06/21 04:26:05;;;;;;;11.50;6.38;;;;;;;;;;5015177;28;20046;-75
2022/06/21 04:29:03;;;;;;;11.05;6.20;;;;;;;;;;5020660;28;20054;-76
2022/06/21 04:32:02;;;;;;;8.32;6.78;;;;;;;;;;5021219;28;20046;-75
2022/06/21 04:34:57;;;;;;;13.30;6.20;;;;;;;;;;5020790;28;20034;-78
2022/06/21 04:37:53;;;;;;;8.27;6.00;;;;;;;;;;5006514;28;20041;-75
2022/06/21 04:40:45;;;;;;;8.98;5.70;;;;;;;;;;5014522;28;20050;-75
2022/06/21 04:43:52;;;;;;;12.38;6.00;;;;;;;;;;5014217;28;20049;-78
2022/06/21 04:46:41;;;;;;;9.07;6.07;;;;;;;;;;5020920;28;20054;-78
2022/06/21 04:49:33;;;;;;;10.82;5.47;;;;;;;;;;5013732;28;20042;-75
2022/06/21 04:52:21;;;;;;;9.55;5.43;;;;;;;;;;5014599;28;20483;-75
2022/06/21 04:55:18;;;;;;;7.28;5.65;;;;;;;;;;5014271;28;20392;-75
2022/06/21 04:58:02;;;;;;;13.45;6.13;;;;;;;;;;5014124;28;20050;-78
2022/06/21 05:00:48;;;;;;;7.13;5.82;;;;;;;;;;5014335;28;20046;-74
2022/06/21 05:03:43;;;;;;;10.27;5.70;;;;;;;;;;5013659;28;20487;-75
2022/06/21 05:06:28;;;;;;;;;;;;;;;;;;5014579;28;20037;-77
2022/06/21 05:09:17;;;;;;;7.75;5.78;;;;;;;;;;5013822;28;19918;-75
2022/06/21 05:12:10;;;;;;;7.78;5.15;;;;;;;;;;5019998;28;20392;-77
2022/06/21 05:15:13;;;;;;;7.28;5.53;;;;;;;;;;5020474;28;20046;-76
2022/06/21 05:18:03;;;;;;;13.88;6.40;;;;;;;;;;5013731;28;20483;-77
2022/06/21 05:20:53;;;;;;;10.57;7.47;;;;;;;;;;5020568;28;20042;-78
2022/06/21 05:23:38;;;;;;;11.95;7.10;;;;;;;;;;5020318;28;20038;-75
2022/06/21 05:26:33;;;;;;;17.17;8.05;;;;;;;;;;5020279;28;20045;-75
2022/06/21 05:29:26;;;;;;;11.35;6.90;;;;;;;;;;5013654;28;20034;-75
2022/06/21 05:32:18;;;;;;;16.65;6.97;;;;;;;;;;5013365;28;20041;-78
2022/06/21 05:35:13;;;;;;;13.38;5.82;;;;;;;;;;5014012;28;20050;-78
2022/06/21 05:38:04;;;;;;;7.95;5.80;;;;;;;;;;5013550;28;20409;-77
2022/06/21 05:40:58;;;;;;;7.72;5.35;;;;;;;;;;5013681;28;20046;-77
2022/06/21 05:43:47;;;;;;;7.95;5.30;;;;;;;;;;5013833;28;20037;-74
2022/06/21 05:46:38;;;;;;;19.80;5.57;;;;;;;;;;5013418;28;20046;-77
2022/06/21 05:49:29;;;;;;;16.60;5.75;;;;;;;;;;4993911;28;20484;-77
2022/06/21 05:52:21;;;;;;;11.02;5.88;;;;;;;;;;4993747;28;20054;-77
2022/06/21 05:55:09;;;;;;;10.95;6.30;;;;;;;;;;4993819;28;20050;-78
2022/06/21 05:58:03;;;;;;;10.65;6.25;;;;;;;;;;4993337;28;20038;-76
2022/06/21 06:00:56;;;;;;;16.88;5.60;;;;;;;;;;4993196;28;20054;-78
2022/06/21 06:04:02;;;;;;;7.03;4.93;;;;;;;;;;4993478;28;20045;-78
2022/06/21 06:06:47;;;;;;;17.75;8.65;;;;;;;;;;4999697;28;20397;-78
2022/06/21 06:09:42;;;;;;;17.27;6.97;;;;;;;;;;4999835;28;20054;-77
2022/06/21 06:12:32;;;;;;;;;;;;;;;;;;5000267;28;20042;-77
2022/06/21 06:15:22;;;;;;;12.27;6.00;;;;;;;;;;4999118;28;19918;-78
2022/06/21 06:18:29;;;;;;;8.20;5.25;;;;;;;;;;4993162;28;20035;-76
2022/06/21 06:21:40;;;;;;;14.48;6.18;;;;;;;;;;4992683;28;20054;-77
2022/06/21 06:24:34;;;;;;;8.60;5.63;;;;;;;;;;5003233;28;20400;-76
2022/06/21 06:27:49;;;;;;;7.85;5.28;;;;;;;;;;4996719;28;20046;-76
2022/06/21 06:30:41;;;;;;;9.80;5.25;;;;;;;;;;5003088;28;20407;-78
2022/06/21 06:33:37;;;;;;;8.02;4.75;;;;;;;;;;4996695;28;20484;-77
2022/06/21 06:36:37;;;;;;;8.88;5.07;;;;;;;;;;4996057;28;20050;-76
2022/06/21 06:39:27;;;;;;;9.07;5.22;;;;;;;;;;4996450;28;20050;-78
2022/06/21 06:42:24;;;;;;;7.07;5.18;;;;;;;;;;5002987;28;20046;-78
2022/06/21 06:45:16;;;;;;;7.70;5.15;;;;;;;;;;4988520;28;20046;-77
2022/06/21 06:48:09;;;;;;;9.48;6.10;;;;;;;;;;4995422;28;20047;-78
2022/06/21 06:51:03;;;;;;;11.43;5.25;;;;;;;;;;4995561;28;20395;-77
2022/06/21 06:53:53;;;;;;;10.07;5.45;;;;;;;;;;4996242;28;20046;-76
2022/06/21 06:56:59;;;;;;;8.57;5.25;;;;;;;;;;4995969;28;20054;-76
2022/06/21 06:59:44;;;;;;;20.58;6.55;;;;;;;;;;4997150;28;20046;-77
2022/06/21 07:02:37;;;;;;;8.75;5.20;;;;;;;;;;4996329;28;20046;-76
2022/06/21 07:05:26;;;;;;;9.25;4.88;;;;;;;;;;4995614;28;20046;-75
2022/06/21 07:08:46;;;;;;;12.35;5.47;;;;;;;;;;4995449;28;20046;-77
2022/06/21 07:11:50;;;;;;;11.70;4.90;;;;;;;;;;4938627;28;20479;-76
2022/06/21 07:14:36;;;;;;;8.73;4.73;;;;;;;;;;5002188;28;20038;-77
2022/06/21 07:17:25;;;;;;;20.85;5.50;;;;;;;;;;4997292;28;20050;-78
2022/06/21 07:20:18;;;;;;;13.70;5.32;;;;;;;;;;4994607;28;20050;-78
2022/06/21 07:23:03;;;;;;;9.82;7.18;;;;;;;;;;4996079;28;20050;-77
2022/06/21 07:25:52;;;;;;;7.93;6.10;;;;;;;;;;5000298;28;20050;-78
2022/06/21 07:28:58;;;;;;;12.98;5.55;;;;;;;;;;4971795;28;99050;-76
2022/06/21 07:31:48;;;;;;;8.00;5.63;;;;;;;;;;4933982;29;42739;-76
2022/06/21 07:34:45;;;;;;;12.80;5.75;;;;;;;;;;4937447;29;20454;-76
2022/06/21 07:37:35;;;;;;;14.02;7.50;;;;;;;;;;4936726;28;20060;-77
2022/06/21 07:40:28;;;;;;;14.50;7.60;;;;;;;;;;4938894;29;20059;-77
2022/06/21 07:43:22;;;;;;;8.18;4.70;;;;;;;;;;4937753;29;20052;-78
2022/06/21 07:46:11;;;;;;;;;;;;;;;;;;4938025;29;20048;-76
2022/06/21 07:49:38;;;;;;;11.98;4.82;;;;;;;;;;4956003;29;20264;-75
2022/06/21 07:52:27;;;;;;;16.08;6.30;;;;;;;;;;4929417;29;20433;-77
2022/06/21 07:55:21;;;;;;;9.90;4.93;;;;;;;;;;4956460;29;20043;-79
2022/06/21 07:58:46;;;;;;;12.02;4.72;;;;;;;;;;4956611;29;20051;-77
2022/06/21 08:08:14;;;;;;;7.00;4.78;;;;;;;;;;4956442;29;20048;-76
2022/06/21 08:11:24;;;;;;;13.68;5.10;;;;;;;;;;4956104;29;20052;-76
2022/06/21 08:14:11;;;;;;;27.77;5.25;;;;;;;;;;4956305;29;20047;-76
2022/06/21 08:17:18;;;;;;;9.63;4.50;;;;;;;;;;4955932;29;20059;-77
2022/06/21 08:20:21;;;;;;;8.00;4.65;;;;;;;;;;4956201;29;20051;-77
2022/06/21 08:23:09;;;;;;;13.05;4.90;;;;;;;;;;4955640;29;20051;-77
2022/06/21 08:26:02;;;;;;;11.38;4.82;;;;;;;;;;4955919;29;20043;-76
2022/06/21 08:29:00;;;;;;;7.65;4.90;;;;;;;;;;4954778;29;20051;-76
2022/06/21 08:31:54;;;;;;;19.67;4.75;;;;;;;;;;4956045;29;20051;-74
2022/06/21 08:34:48;;;;;;;10.35;5.07;;;;;;;;;;4956535;29;20385;-74
2022/06/21 08:37:54;;;;;;;9.32;5.05;;;;;;;;;;4955699;29;20393;-77
2022/06/21 08:41:51;;;;;;;9.52;4.80;;;;;;;;;;4962597;28;20047;-76
2022/06/21 08:44:36;;;;;;;7.82;4.22;;;;;;;;;;4955225;28;20051;-78
2022/06/21 08:47:49;;;;;;;7.30;4.25;;;;;;;;;;4959972;28;20505;-78
2022/06/21 08:50:44;;;;;;;10.27;3.83;;;;;;;;;;4955242;29;20051;-75
2022/06/21 08:53:32;;;;;;;;;;;;;;;;;;4956282;29;20393;-76
2022/06/21 08:56:46;;;;;;;6.70;3.47;;;;;;;;;;4955688;29;20360;-78
2022/06/21 09:00:04;;;;;;;10.00;4.72;;;;;;;;;;4937634;29;20051;-76
2022/06/21 09:03:10;;;;;;;6.82;3.97;;;;;;;;;;4955944;29;20047;-76
2022/06/21 09:06:42;;;;;;;12.15;4.50;;;;;;;;;;4955093;29;20044;-77
2022/06/21 09:09:27;;;;;;;8.23;4.53;;;;;;;;;;4956067;28;20039;-76
2022/06/21 09:12:24;;;;;;;8.95;4.60;;;;;;;;;;4955250;29;20047;-75
2022/06/21 09:15:48;;;;;;;12.30;5.63;;;;;;;;;;4955379;29;20051;-76
2022/06/21 09:19:05;;;;;;;9.02;4.90;;;;;;;;;;4955572;29;20481;-76
2022/06/21 09:21:57;;;;;;;9.90;5.15;;;;;;;;;;4955317;29;20055;-76
2022/06/21 09:24:52;;;;;;;15.13;5.88;;;;;;;;;;4955411;28;20047;-78
2022/06/21 09:27:48;;;;;;;12.88;5.47;;;;;;;;;;4961449;28;20043;-78
2022/06/21 09:30:41;;;;;;;18.50;5.30;;;;;;;;;;4955618;29;20047;-78
2022/06/21 09:34:09;;;;;;;9.02;4.53;;;;;;;;;;4954960;29;20043;-78
2022/06/21 09:37:13;;;;;;;11.73;5.00;;;;;;;;;;4928490;29;20058;-76
2022/06/21 09:40:22;;;;;;;10.95;4.75;;;;;;;;;;4961635;28;20043;-77
2022/06/21 09:43:21;;;;;;;8.00;4.53;;;;;;;;;;4955221;29;20047;-78
2022/06/21 09:46:24;;;;;;;18.38;5.53;;;;;;;;;;4955518;29;20051;-76
2022/06/21 09:49:29;;;;;;;9.03;5.40;;;;;;;;;;4954674;29;20051;-77
2022/06/21 09:52:21;;;;;;;11.38;5.07;;;;;;;;;;4955449;29;20047;-76
2022/06/21 09:55:21;;;;;;;10.23;4.70;;;;;;;;;;4954867;29;20055;-76
2022/06/21 09:58:18;;;;;;;10.48;4.45;;;;;;;;;;4958842;28;20047;-78
2022/06/21 10:01:14;;;;;;;10.88;4.82;;;;;;;;;;4959473;29;20388;-77
2022/06/21 10:04:18;;;;;;;9.57;5.32;;;;;;;;;;4958923;29;20039;-77
2022/06/21 10:07:38;;;;;;;13.30;4.72;;;;;;;;;;4951245;28;20047;-76
2022/06/21 10:10:24;;;;;;;13.98;5.50;;;;;;;;;;4938634;29;20043;-77
2022/06/21 10:13:20;;;;;;;13.48;7.97;;;;;;;;;;4959085;29;20039;-77
2022/06/21 10:16:12;;;;;;;16.77;5.60;;;;;;;;;;4958113;29;20493;-76
2022/06/21 10:19:19;;;;;;;10.15;5.10;;;;;;;;;;4964976;28;20051;-77
2022/06/21 10:22:10;;;;;;;12.00;5.13;;;;;;;;;;4958784;29;20047;-79
2022/06/21 10:25:26;;;;;;;12.60;4.53;;;;;;;;;;4964234;28;20051;-78
2022/06/21 10:28:18;;;;;;;11.50;4.90;;;;;;;;;;4958692;29;20051;-76
2022/06/21 10:31:06;;;;;;;10.18;4.70;;;;;;;;;;4957780;29;20047;-76
2022/06/21 10:33:52;;;;;;;10.85;5.25;;;;;;;;;;4958436;29;20405;-78
2022/06/21 10:36:59;;;;;;;10.20;5.07;;;;;;;;;;4958126;29;20489;-76
2022/06/21 10:40:15;;;;;;;11.15;4.68;;;;;;;;;;4958452;29;20035;-78
2022/06/21 10:43:16;;;;;;;8.70;4.60;;;;;;;;;;4964627;28;20051;-78
2022/06/21 10:46:38;;;;;;;7.30;4.22;;;;;;;;;;4964146;28;20481;-78
2022/06/21 10:49:48;;;;;;;13.75;5.28;;;;;;;;;;4964328;28;20508;-75
2022/06/21 10:53:05;;;;;;;9.20;4.57;;;;;;;;;;4951418;29;20047;-76
2022/06/21 10:59:25;;;;;;;11.50;5.83;;;;;;;;;;4957463;29;20043;-76
2022/06/21 11:02:21;;;;;;;7.90;3.95;;;;;;;;;;4958205;29;20282;-76
2022/06/21 11:05:28;;;;;;;8.63;4.72;;;;;;;;;;4957879;28;20051;-76
2022/06/21 11:08:48;;;;;;;7.95;4.28;;;;;;;;;;4956837;28;20059;-78
2022/06/21 11:11:44;;;;;;;10.23;4.88;;;;;;;;;;4957426;29;20043;-78
2022/06/21 11:14:55;;;;;;;10.27;4.78;;;;;;;;;;4957232;29;20043;-76
2022/06/21 11:17:50;;;;;;;8.35;4.70;;;;;;;;;;4957758;29;20127;-78
2022/06/21 11:20:41;;;;;;;;;;;;;;;;;;4963974;28;20044;-77
2022/06/21 11:23:39;;;;;;;9.70;4.63;;;;;;;;;;4957552;29;19919;-78
2022/06/21 11:26:24;;;;;;;8.38;4.55;;;;;;;;;;4957432;29;20047;-78
2022/06/21 11:29:24;;;;;;;7.28;4.43;;;;;;;;;;4957206;29;20138;-76
2022/06/21 11:32:37;;;;;;;8.40;4.05;;;;;;;;;;4957381;29;20051;-77
2022/06/21 11:36:00;;;;;;;14.55;5.20;;;;;;;;;;4956952;29;20063;-77
2022/06/21 11:39:15;;;;;;;14.10;5.22;;;;;;;;;;4957096;29;20039;-78
2022/06/21 11:42:19;;;;;;;5.93;4.55;;;;;;;;;;4956603;28;20055;-76
2022/06/21 11:45:16;;;;;;;8.35;4.20;;;;;;;;;;4957495;29;20043;-76
2022/06/21 11:48:21;;;;;;;15.30;4.80;;;;;;;;;;4956656;29;20043;-78
2022/06/21 11:51:10;;;;;;;11.25;4.43;;;;;;;;;;4956559;29;20043;-76
2022/06/21 11:54:26;;;;;;;12.55;5.43;;;;;;;;;;4956872;29;20043;-78
2022/06/21 11:57:39;;;;;;;13.15;4.78;;;;;;;;;;4936927;29;20051;-76
2022/06/21 12:00:48;;;;;;;14.70;7.03;;;;;;;;;;4956874;29;20043;-76
2022/06/21 12:04:01;;;;;;;10.75;4.30;;;;;;;;;;4956385;29;20043;-76
2022/06/21 12:07:07;;;;;;;10.88;4.47;;;;;;;;;;4956761;29;20051;-78
2022/06/21 12:10:01;;;;;;;11.52;4.13;;;;;;;;;;4956198;29;20047;-76
2022/06/21 12:13:00;;;;;;;10.60;5.13;;;;;;;;;;4956540;29;20039;-76
2022/06/21 12:16:15;;;;;;;12.10;4.47;;;;;;;;;;4956496;29;20047;-75
2022/06/21 12:19:24;;;;;;;8.73;4.50;;;;;;;;;;4956251;28;20051;-78
2022/06/21 12:22:37;;;;;;;8.98;4.60;;;;;;;;;;4956783;29;20043;-76
2022/06/21 12:25:22;;;;;;;10.07;4.60;;;;;;;;;;4962373;28;20481;-77
2022/06/21 12:28:13;;;;;;;10.82;4.63;;;;;;;;;;4956168;29;20043;-76
2022/06/21 12:31:03;;;;;;;11.10;4.95;;;;;;;;;;4955224;29;20043;-78
2022/06/21 12:33:55;;;;;;;7.28;4.43;;;;;;;;;;4962809;28;20051;-77
2022/06/21 12:36:49;;;;;;;9.32;4.10;;;;;;;;;;4956127;29;20043;-75
2022/06/21 12:39:39;;;;;;;8.02;3.80;;;;;;;;;;4955737;29;20043;-75
2022/06/21 12:42:36;;;;;;;13.38;4.78;;;;;;;;;;4949137;29;20055;-77
2022/06/21 12:45:37;;;;;;;9.13;4.38;;;;;;;;;;4956014;29;20070;-77
2022/06/21 12:48:35;;;;;;;9.13;4.20;;;;;;;;;;4955648;29;20047;-78
2022/06/21 12:52:17;;;;;;;7.88;4.43;;;;;;;;;;4962329;28;20046;-75
2022/06/21 12:55:24;;;;;;;11.02;4.78;;;;;;;;;;4915881;29;20052;-76
2022/06/21 12:58:24;;;;;;;13.75;5.35;;;;;;;;;;4922060;29;20048;-77
2022/06/21 13:01:19;;;;;;;11.82;5.20;;;;;;;;;;4955390;29;20493;-76
2022/06/21 13:04:41;;;;;;;9.27;4.80;;;;;;;;;;4955905;29;20051;-77
2022/06/21 13:08:05;;;;;;;11.40;5.53;;;;;;;;;;4955300;29;20039;-75
2022/06/21 13:11:24;;;;;;;16.67;4.72;;;;;;;;;;4955797;29;20055;-75
2022/06/21 13:14:29;;;;;;;10.15;4.65;;;;;;;;;;4955118;29;20051;-77
2022/06/21 13:18:11;;;;;;;8.25;4.50;;;;;;;;;;4956031;29;20055;-75
2022/06/21 13:21:13;;;;;;;12.07;4.45;;;;;;;;;;4877699;29;20053;-77
2022/06/21 13:24:13;;;;;;;9.82;4.85;;;;;;;;;;4877879;29;20049;-75
2022/06/21 13:27:22;;;;;;;10.35;4.80;;;;;;;;;;4955755;29;20047;-77
2022/06/21 13:30:28;;;;;;;7.55;4.40;;;;;;;;;;4955137;29;20051;-77
2022/06/21 13:33:24;;;;;;;10.55;4.85;;;;;;;;;;4955186;29;20063;-75
2022/06/21 13:36:33;;;;;;;12.05;4.03;;;;;;;;;;4955269;29;20509;-75
2022/06/21 13:39:41;;;;;;;8.48;4.20;;;;;;;;;;4955614;29;20059;-77
2022/06/21 13:42:37;;;;;;;8.32;4.38;;;;;;;;;;4955219;29;20055;-78
2022/06/21 13:45:35;;;;;;;8.52;4.30;;;;;;;;;;4947159;29;20055;-77
2022/06/21 13:48:24;;;;;;;11.45;4.93;;;;;;;;;;4954955;29;20513;-76
2022/06/21 13:51:17;;;;;;;12.57;4.28;;;;;;;;;;4953946;29;20408;-77
2022/06/21 13:54:28;;;;;;;9.55;4.60;;;;;;;;;;4955260;29;20051;-74
2022/06/21 13:57:38;;;;;;;8.90;4.80;;;;;;;;;;4954447;29;20493;-77
2022/06/21 14:00:35;;;;;;;10.00;4.55;;;;;;;;;;4954951;29;20047;-77
2022/06/21 14:03:53;;;;;;;11.30;4.75;;;;;;;;;;4954758;29;20047;-76
2022/06/21 14:06:57;;;;;;;7.07;4.50;;;;;;;;;;4961436;29;20047;-77
2022/06/21 14:10:06;;;;;;;14.68;4.65;;;;;;;;;;4961516;29;20047;-76
2022/06/21 14:13:14;;;;;;;9.63;4.32;;;;;;;;;;4954460;29;20149;-76
2022/06/21 14:16:07;;;;;;;7.88;4.68;;;;;;;;;;4954670;29;20093;-76
2022/06/21 14:19:05;;;;;;;8.40;4.18;;;;;;;;;;4954381;29;20047;-77
2022/06/21 14:21:56;;;;;;;8.02;4.53;;;;;;;;;;4954781;29;20043;-79
2022/06/21 14:24:59;;;;;;;12.35;4.30;;;;;;;;;;4954735;29;20040;-78
2022/06/21 14:27:55;;;;;;;12.10;4.47;;;;;;;;;;4954805;29;20043;-76
2022/06/21 14:30:50;;;;;;;10.63;4.30;;;;;;;;;;4961073;28;20043;-78
2022/06/21 14:33:42;;;;;;;11.93;4.45;;;;;;;;;;4954245;29;20051;-76
2022/06/21 14:36:32;;;;;;;8.52;4.03;;;;;;;;;;4954944;29;20436;-77
2022/06/21 14:39:47;;;;;;;19.10;5.28;;;;;;;;;;4960859;28;20039;-78
2022/06/21 14:42:44;;;;;;;6.88;4.63;;;;;;;;;;4955015;28;20458;-75
2022/06/21 14:45:47;;;;;;;8.93;4.38;;;;;;;;;;4958522;29;20416;-78
2022/06/21 14:48:35;;;;;;;8.23;4.07;;;;;;;;;;4958583;28;20047;-75
2022/06/21 14:51:35;;;;;;;11.95;4.40;;;;;;;;;;4957922;29;20047;-76
2022/06/21 14:54:54;;;;;;;9.05;4.10;;;;;;;;;;4949591;28;20039;-76
2022/06/21 14:58:05;;;;;;;9.60;4.07;;;;;;;;;;4964238;28;20051;-77
2022/06/21 15:01:03;;;;;;;12.55;4.25;;;;;;;;;;4964159;28;20496;-77
2022/06/21 15:04:31;;;;;;;11.77;4.15;;;;;;;;;;4957831;29;20043;-75
2022/06/21 15:07:30;;;;;;;13.25;4.68;;;;;;;;;;4943532;29;20051;-77
2022/06/21 15:10:34;;;;;;;9.93;4.57;;;;;;;;;;4957529;29;20389;-77
2022/06/21 15:13:49;;;;;;;10.45;4.50;;;;;;;;;;4964303;28;20043;-77
2022/06/21 15:16:54;;;;;;;17.63;6.18;;;;;;;;;;4963792;28;20055;-78
2022/06/21 15:19:54;;;;;;;18.00;5.75;;;;;;;;;;4957942;29;20051;-78
2022/06/21 15:23:12;;;;;;;18.17;5.78;;;;;;;;;;4957303;29;20493;-77
2022/06/21 15:26:06;;;;;;;16.42;6.15;;;;;;;;;;4964080;28;20051;-77
2022/06/21 15:29:05;;;;;;;20.73;6.43;;;;;;;;;;4957277;29;20389;-78
2022/06/21 15:32:02;;;;;;;24.60;6.95;;;;;;;;;;4957016;29;20040;-76
2022/06/21 15:34:52;;;;;;;16.65;7.25;;;;;;;;;;4957970;29;20047;-77
2022/06/21 15:38:06;;;;;;;20.55;8.18;;;;;;;;;;4956699;29;20481;-77
2022/06/21 15:40:58;;;;;;;18.30;7.93;;;;;;;;;;4963429;28;20054;-78
2022/06/21 15:43:44;;;;;;;20.40;7.82;;;;;;;;;;4957345;29;20048;-75
2022/06/21 15:46:33;;;;;;;13.88;7.45;;;;;;;;;;4957368;29;20469;-76
2022/06/21 15:52:31;;;;;;;13.00;7.75;;;;;;;;;;4959248;29;20043;-76
2022/06/21 15:55:32;;;;;;;13.00;7.38;;;;;;;;;;4959068;28;20035;-75
2022/06/21 15:58:24;;;;;;;10.38;6.88;;;;;;;;;;4959220;29;20080;-76
2022/06/21 16:01:29;;;;;;;16.45;7.93;;;;;;;;;;4958967;29;20047;-77
2022/06/21 16:04:35;;;;;;;17.55;8.73;;;;;;;;;;4963929;28;20055;-76
2022/06/21 16:07:31;;;;;;;11.13;6.30;;;;;;;;;;4963363;28;20413;-76
2022/06/21 16:10:30;;;;;;;8.52;5.15;;;;;;;;;;4957433;29;20043;-77
2022/06/21 16:13:17;;;;;;;13.65;7.30;;;;;;;;;;4962405;28;20047;-77
2022/06/21 16:16:06;;;;;;;13.18;7.85;;;;;;;;;;4961644;28;20060;-76
2022/06/21 16:18:56;;;;;;;14.18;8.25;;;;;;;;;;4960912;28;20047;-76
2022/06/21 16:21:44;;;;;;;15.75;9.77;;;;;;;;;;4954628;29;20047;-76
2022/06/21 16:24:32;;;;;;;13.65;8.77;;;;;;;;;;4954501;29;20490;-76
2022/06/21 16:27:40;;;;;;;11.00;6.85;;;;;;;;;;4954859;29;20485;-76
2022/06/21 16:30:29;;;;;;;13.30;7.03;;;;;;;;;;4956002;29;20073;-76
2022/06/21 16:33:28;;;;;;;11.45;7.13;;;;;;;;;;4955738;29;20392;-75
2022/06/21 16:36:20;;;;;;;16.20;7.90;;;;;;;;;;4956152;29;20047;-77
2022/06/21 16:39:21;;;;;;;10.77;6.50;;;;;;;;;;4956415;29;20400;-76
2022/06/21 16:45:33;;;;;;;13.35;5.90;;;;;;;;;;4956463;29;20047;-76
2022/06/21 16:48:54;;;;;;;12.07;5.13;;;;;;;;;;4955276;29;20047;-76
2022/06/21 16:51:46;;;;;;;9.48;5.95;;;;;;;;;;4925313;29;20043;-77
2022/06/21 16:54:35;;;;;;;10.15;5.38;;;;;;;;;;4955505;29;20039;-76
2022/06/21 16:57:30;;;;;;;13.55;5.40;;;;;;;;;;4955783;29;20043;-75
2022/06/21 17:00:27;;;;;;;11.75;5.60;;;;;;;;;;4956187;29;20051;-77
2022/06/21 17:03:15;;;;;;;9.57;5.40;;;;;;;;;;4955053;29;20047;-75
2022/06/21 17:06:01;;;;;;;8.77;5.53;;;;;;;;;;4955094;28;20401;-76
2022/06/21 17:08:47;;;;;;;9.95;6.13;;;;;;;;;;4955570;29;20043;-77
2022/06/21 17:11:33;;;;;;;9.98;5.43;;;;;;;;;;4955575;29;20047;-76
2022/06/21 17:14:25;;;;;;;9.40;5.80;;;;;;;;;;4955334;29;20039;-76
2022/06/21 17:17:13;;;;;;;10.20;5.38;;;;;;;;;;4955077;29;20043;-75
2022/06/21 17:20:11;;;;;;;8.63;5.32;;;;;;;;;;4955821;29;20055;-75
2022/06/21 17:23:19;;;;;;;12.25;5.82;;;;;;;;;;4955489;29;20043;-75
2022/06/21 17:26:17;;;;;;;9.80;5.65;;;;;;;;;;4940431;29;20055;-76
2022/06/21 17:29:06;;;;;;;10.55;5.60;;;;;;;;;;4922490;23;20053;-76
2022/06/21 17:31:55;;;;;;;10.38;5.72;;;;;;;;;;4879870;29;20046;-76
2022/06/21 17:35:17;;;;;;;12.63;6.15;;;;;;;;;;4879467;29;20491;-76
2022/06/21 17:38:19;;;;;;;8.32;6.13;;;;;;;;;;4885003;29;20407;-75
2022/06/21 17:41:26;;;;;;;18.80;9.65;;;;;;;;;;4879328;29;20049;-77
2022/06/21 17:44:20;;;;;;;62.67;25.58;;;;;;;;;;4878582;29;20049;-75
2022/06/21 17:47:27;;;;;;;12.85;7.55;;;;;;;;;;4879118;29;20049;-75
2022/06/21 17:50:21;;;;;;;18.45;10.40;;;;;;;;;;4879241;29;20053;-75
2022/06/21 17:53:17;;;;;;;14.35;6.72;;;;;;;;;;4897711;29;20052;-77
2022/06/21 17:56:13;;;;;;;14.80;7.13;;;;;;;;;;4897660;29;20499;-76
2022/06/21 17:59:14;;;;;;;17.55;8.25;;;;;;;;;;4897887;29;20049;-75